This is the latest recevied weather packets stored in our database for station/object KD9CCP. If no packets are shown the sender has not sent any weather packets the latest 10 day(s).
| Time | Temp. | Humidity | Pressure | Rain* | Wind** | Luminosity | Snow |
|---|---|---|---|---|---|---|---|
| 1777501191 | 5.56° C | 71% | 1017.1 hPa | 0 mm | - | 20 W/m² | - |
| 1777500889 | 5.56° C | 72% | 1016.9 hPa | 0 mm | - | 29 W/m² | - |
| 1777500586 | 5.56° C | 75% | 1016.6 hPa | 0 mm | - | 42 W/m² | - |
| 1777500283 | 5.56° C | 82% | 1016.7 hPa | 0 mm | - | 23 W/m² | - |
| 1777499979 | 5.56° C | 82% | 1016.6 hPa | 0 mm | - | 13 W/m² | - |
| 1777499676 | 5.56° C | 81% | 1016.5 hPa | 0 mm | - | 20 W/m² | - |
| 1777499373 | 5.56° C | 82% | 1016.5 hPa | 0 mm | - | 19 W/m² | - |
| 1777499071 | 5.56° C | 82% | 1016.3 hPa | 0 mm | - | 41 W/m² | - |
| 1777498767 | 5.56° C | 81% | 1016.4 hPa | 0 mm | - | 46 W/m² | - |
| 1777498464 | 5.56° C | 80% | 1016.5 hPa | 0 mm | - | 29 W/m² | - |
| 1777498160 | 6.11° C | 80% | 1016.1 hPa | 0 mm | - | 32 W/m² | - |
| 1777497858 | 6.11° C | 76% | 1016.2 hPa | 0 mm | - | 23 W/m² | - |
| 1777497554 | 6.67° C | 75% | 1016.2 hPa | 0 mm | - | 16 W/m² | - |
| 1777497250 | 7.22° C | 78% | 1016.1 hPa | 0 mm | - | 39 W/m² | - |
| 1777496947 | 7.22° C | 76% | 1016.1 hPa | 0 mm | - | 48 W/m² | - |
| 1777496644 | 6.67° C | 79% | 1016.1 hPa | 0 mm | - | 149 W/m² | - |
| 1777496340 | 6.67° C | 82% | 1016 hPa | 0 mm | - | 65 W/m² | - |
| 1777496035 | 6.11° C | 81% | 1016.4 hPa | 0 mm | - | 46 W/m² | - |
| 1777495732 | 5.56° C | 83% | 1016.5 hPa | 0 mm | - | 40 W/m² | - |
| 1777495428 | 5.56° C | 84% | 1016.5 hPa | 0 mm | - | 76 W/m² | - |
| 1777495125 | 5.56° C | 87% | 1016.5 hPa | 0 mm | - | 77 W/m² | - |
| 1777494822 | 5° C | 87% | 1016.7 hPa | 0 mm | - | 74 W/m² | - |
| 1777494519 | 4.44° C | 88% | 1016.7 hPa | 0 mm | - | 46 W/m² | - |
| 1777494217 | 4.44° C | 89% | 1016.6 hPa | 0 mm | - | 41 W/m² | - |
| 1777493913 | 4.44° C | 89% | 1016.7 hPa | 0 mm | - | 46 W/m² | - |
* Rain latest hour (hover to see other rain measurements)
** Current wind speed in m/s (hover to see current wind gust speed)